Time;durP1;ratioP1;P1;durP2;ratioP2;P2;SDS_P1;SDS_P2;PMS_P1;PMS_P2;Temp;Humidity;BMP_temperature;BMP_pressure;BME280_temperature;BME280_humidity;BME280_pressure;Samples;Min_cycle;Max_cycle;Signal;HPM_P1;HPM_P2
2022/09/15 00:01:59;;;;;;;0.97;0.70;;;;;;;19.84;60.46;98630.34;5073504;28;20753;-80
2022/09/15 00:04:26;;;;;;;0.70;0.70;;;;;;;19.86;60.31;98633.53;5073283;28;20215;-80
2022/09/15 00:06:53;;;;;;;0.53;0.53;;;;;;;19.87;60.56;98627.38;5073837;28;20225;-80
2022/09/15 00:09:19;;;;;;;1.97;0.70;;;;;;;19.89;59.83;98633.97;5074547;28;20625;-81
2022/09/15 00:11:47;;;;;;;1.03;0.80;;;;;;;19.90;60.25;98630.41;5073610;28;20217;-80
2022/09/15 00:14:14;;;;;;;0.50;0.50;;;;;;;19.88;60.18;98632.38;5073204;28;20209;-81
2022/09/15 00:16:42;;;;;;;0.90;0.70;;;;;;;19.88;60.27;98637.56;5073050;28;20727;-81
2022/09/15 00:19:09;;;;;;;0.80;0.80;;;;;;;19.86;59.64;98636.13;5073146;28;20636;-80
2022/09/15 00:21:40;;;;;;;0.40;0.40;;;;;;;19.95;59.51;98627.25;5073611;28;20232;-80
2022/09/15 00:24:07;;;;;;;0.80;0.80;;;;;;;19.97;60.13;98634.88;5073197;28;20202;-80
2022/09/15 00:26:35;;;;;;;0.60;0.60;;;;;;;19.94;59.84;98630.84;5073302;28;20220;-80
2022/09/15 00:29:02;;;;;;;0.63;0.50;;;;;;;19.95;60.16;98624.66;5072674;28;20202;-80
2022/09/15 00:31:32;;;;;;;1.33;0.87;;;;;;;19.96;60.25;98618.50;5072939;28;20800;-80
2022/09/15 00:34:02;;;;;;;0.90;0.67;;;;;;;19.95;60.19;98626.44;5073197;28;20219;-80
2022/09/15 00:36:30;;;;;;;0.50;0.50;;;;;;;19.93;60.10;98623.25;5072893;28;20224;-80
2022/09/15 00:38:57;;;;;;;0.50;0.50;;;;;;;19.93;59.72;98626.66;5072719;28;20232;-81
2022/09/15 00:41:25;;;;;;;0.67;0.67;;;;;;;19.97;60.48;98635.66;5072942;28;20224;-80
2022/09/15 00:43:55;;;;;;;1.37;0.60;;;;;;;19.85;60.20;98626.75;5073687;28;20204;-80
2022/09/15 00:46:24;;;;;;;0.60;0.60;;;;;;;19.82;60.47;98642.69;5073163;28;20616;-80
2022/09/15 00:48:58;;;;;;;0.63;0.60;;;;;;;19.77;60.40;98642.41;5072532;28;20213;-81
2022/09/15 00:51:31;;;;;;;0.77;0.70;;;;;;;19.80;60.30;98631.66;5072756;28;20280;-80
2022/09/15 00:54:02;;;;;;;0.90;0.80;;;;;;;19.77;60.24;98643.22;5072560;28;20205;-80
2022/09/15 00:56:32;;;;;;;0.70;0.70;;;;;;;19.77;60.47;98645.00;5073017;28;20284;-80
2022/09/15 00:59:03;;;;;;;0.63;0.63;;;;;;;19.85;61.22;98643.13;5072375;28;20251;-80
2022/09/15 01:01:31;;;;;;;0.73;0.70;;;;;;;19.89;60.66;98638.34;5072164;28;20702;-81
2022/09/15 01:03:59;;;;;;;0.93;0.70;;;;;;;19.79;61.09;98637.84;5072497;28;20210;-80
2022/09/15 01:06:33;;;;;;;0.57;0.53;;;;;;;19.75;60.52;98641.78;5072586;28;20218;-81
2022/09/15 01:09:06;;;;;;;0.73;0.70;;;;;;;19.73;60.85;98646.34;5071434;28;20204;-80
2022/09/15 01:11:34;;;;;;;0.70;0.70;;;;;;;19.76;60.68;98644.19;5072220;28;20229;-80
2022/09/15 01:14:01;;;;;;;0.40;0.40;;;;;;;19.77;60.76;98645.00;5072302;28;20200;-80
2022/09/15 01:16:48;;;;;;;0.73;0.73;;;;;;;19.77;60.35;98645.00;5071463;28;20270;-80
2022/09/15 01:19:33;;;;;;;0.73;0.73;;;;;;;19.78;60.32;98646.59;5072936;28;20233;-80
2022/09/15 01:22:12;;;;;;;0.60;0.60;;;;;;;19.81;59.70;98648.81;5072963;28;20276;-81
2022/09/15 01:24:45;;;;;;;1.00;0.63;;;;;;;19.84;59.80;98657.09;5072256;28;20650;-81
2022/09/15 01:27:22;;;;;;;1.00;0.80;;;;;;;19.92;59.79;98653.56;5071971;28;20192;-80
2022/09/15 01:30:08;;;;;;;0.43;0.43;;;;;;;19.92;59.97;98658.75;5072220;28;20204;-80
2022/09/15 01:33:05;;;;;;;0.50;0.50;;;;;;;19.90;59.68;98650.38;5071879;28;20809;-80
2022/09/15 01:35:51;;;;;;;0.93;0.57;;;;;;;19.89;59.57;98641.75;5072075;28;20228;-80
2022/09/15 01:38:28;;;;;;;0.50;0.50;;;;;;;19.89;58.98;98646.13;5071331;28;20740;-80
2022/09/15 01:41:01;;;;;;;0.67;0.60;;;;;;;19.92;59.12;98645.78;5071684;28;20707;-81
2022/09/15 01:43:29;;;;;;;0.70;0.70;;;;;;;19.96;59.66;98639.25;5071677;28;20204;-80
2022/09/15 01:45:59;;;;;;;0.70;0.70;;;;;;;19.96;58.96;98644.44;5071453;28;20227;-80
2022/09/15 01:48:28;;;;;;;0.40;0.40;;;;;;;19.96;59.65;98636.66;5071177;28;20209;-80
2022/09/15 01:50:57;;;;;;;0.47;0.47;;;;;;;19.98;59.11;98642.44;5071518;28;20226;-80
2022/09/15 01:53:24;;;;;;;0.70;0.70;;;;;;;19.92;59.30;98634.59;5071491;28;20208;-80
2022/09/15 01:55:55;;;;;;;0.63;0.63;;;;;;;19.88;59.18;98632.38;5072238;28;20220;-80
2022/09/15 01:58:22;;;;;;;0.70;0.60;;;;;;;19.91;59.10;98641.59;5071750;28;20227;-80
2022/09/15 02:00:56;;;;;;;0.47;0.47;;;;;;;19.94;59.58;98646.41;5071077;28;20229;-80
2022/09/15 02:03:32;;;;;;;0.67;0.50;;;;;;;19.82;58.97;98634.91;5071537;28;20207;-80
2022/09/15 02:06:04;;;;;;;0.50;0.50;;;;;;;19.86;59.62;98638.72;5070893;28;20754;-80
2022/09/15 02:08:38;;;;;;;2.00;0.73;;;;;;;19.84;59.66;98638.13;5071225;28;20205;-80
2022/09/15 02:11:14;;;;;;;0.60;0.60;;;;;;;19.73;60.08;98629.00;5071079;28;20220;-80
2022/09/15 02:13:47;;;;;;;0.57;0.57;;;;;;;19.77;59.98;98629.44;5070998;28;20203;-81
2022/09/15 02:16:19;;;;;;;0.40;0.40;;;;;;;19.72;59.97;98632.56;5071215;28;20243;-80
2022/09/15 02:19:00;;;;;;;0.90;0.60;;;;;;;19.64;60.17;98636.03;5070996;28;20243;-81
2022/09/15 02:21:32;;;;;;;0.50;0.50;;;;;;;19.66;60.26;98636.72;5070925;28;20229;-80
2022/09/15 02:24:07;;;;;;;1.93;0.70;;;;;;;19.71;60.27;98640.53;5071053;28;20292;-80
2022/09/15 02:26:37;;;;;;;0.40;0.40;;;;;;;19.69;60.75;98632.91;5070987;28;20241;-80
2022/09/15 02:29:09;;;;;;;1.07;0.70;;;;;;;19.59;60.56;98633.19;5071416;28;20299;-81
2022/09/15 02:31:38;;;;;;;0.73;0.60;;;;;;;19.62;60.55;98627.63;5070800;28;20216;-80
2022/09/15 02:34:13;;;;;;;0.70;0.70;;;;;;;19.55;60.74;98636.31;5070361;28;20667;-80
2022/09/15 02:36:42;;;;;;;0.73;0.70;;;;;;;19.50;60.62;98631.66;5072447;28;20221;-81
2022/09/15 02:39:13;;;;;;;0.40;0.40;;;;;;;19.50;60.80;98629.06;5071102;28;20231;-80
2022/09/15 02:41:40;;;;;;;0.50;0.50;;;;;;;19.45;62.15;98632.19;5071321;28;20280;-80
2022/09/15 02:44:08;;;;;;;0.47;0.47;;;;;;;19.42;61.68;98629.16;5071588;28;20215;-80
2022/09/15 02:46:36;;;;;;;1.10;0.70;;;;;;;19.46;62.12;98630.44;5071354;28;20749;-80
2022/09/15 02:49:03;;;;;;;0.83;0.80;;;;;;;19.42;61.78;98627.34;5070686;28;20211;-80
2022/09/15 02:51:31;;;;;;;0.40;0.40;;;;;;;19.39;61.25;98626.91;5071050;28;20220;-80
2022/09/15 02:53:58;;;;;;;0.60;0.60;;;;;;;19.41;61.54;98630.16;5070700;28;20204;-80
2022/09/15 02:56:25;;;;;;;0.60;0.60;;;;;;;19.43;62.15;98633.34;5070840;28;20239;-80
2022/09/15 02:58:51;;;;;;;0.60;0.60;;;;;;;19.33;61.77;98627.63;5070280;28;20237;-80
2022/09/15 03:01:18;;;;;;;0.63;0.63;;;;;;;19.43;61.88;98630.75;5070433;28;20225;-80
2022/09/15 03:03:46;;;;;;;0.90;0.70;;;;;;;19.38;62.73;98625.31;5070774;28;20202;-81
2022/09/15 03:06:16;;;;;;;0.83;0.77;;;;;;;19.38;62.60;98630.50;5070297;28;20220;-81
2022/09/15 03:08:48;;;;;;;0.40;0.40;;;;;;;19.40;61.52;98628.53;5071241;28;20206;-81
2022/09/15 03:11:15;;;;;;;0.53;0.53;;;;;;;19.37;62.03;98624.53;5070556;28;20306;-80
2022/09/15 03:13:42;;;;;;;0.50;0.50;;;;;;;19.37;62.27;98623.69;5070389;28;20669;-80
2022/09/15 03:16:10;;;;;;;0.60;0.60;;;;;;;19.38;61.88;98631.31;5070159;28;20233;-80
2022/09/15 03:18:37;;;;;;;0.50;0.50;;;;;;;19.36;61.91;98629.88;5071180;28;20735;-80
2022/09/15 03:21:06;;;;;;;0.70;0.70;;;;;;;19.31;61.98;98629.59;5070675;28;20215;-80
2022/09/15 03:23:34;;;;;;;0.70;0.70;;;;;;;19.33;62.26;98627.63;5071120;28;20212;-80
2022/09/15 03:26:03;;;;;;;0.50;0.50;;;;;;;19.25;61.93;98620.75;5070604;28;20628;-80
2022/09/15 03:28:30;;;;;;;0.50;0.50;;;;;;;19.29;63.02;98629.78;5070557;28;20215;-80
2022/09/15 03:30:57;;;;;;;0.97;0.70;;;;;;;19.19;62.64;98622.25;5070011;28;20240;-80
2022/09/15 03:33:24;;;;;;;0.60;0.60;;;;;;;19.19;63.09;98617.06;5074107;28;20265;-80
2022/09/15 03:35:52;;;;;;;0.40;0.40;;;;;;;19.12;64.29;98626.53;5073959;28;20600;-80
2022/09/15 03:38:19;;;;;;;0.70;0.70;;;;;;;19.10;62.82;98638.06;5074109;28;20647;-81
2022/09/15 03:40:57;;;;;;;0.90;0.70;;;;;;;19.13;63.21;98622.97;5074254;28;20749;-80
2022/09/15 03:43:25;;;;;;;0.40;0.37;;;;;;;19.09;63.05;98632.09;5074232;28;20253;-80
2022/09/15 03:45:53;;;;;;;0.50;0.50;;;;;;;19.15;63.44;98625.41;5073379;28;20272;-80
2022/09/15 03:48:20;;;;;;;0.77;0.70;;;;;;;19.06;62.91;98622.06;5073809;28;20568;-81
2022/09/15 03:50:47;;;;;;;0.43;0.43;;;;;;;19.05;63.10;98632.59;5074973;28;20224;-80
2022/09/15 03:53:14;;;;;;;1.23;0.50;;;;;;;19.10;63.14;98633.69;5074516;28;20209;-80
2022/09/15 03:55:41;;;;;;;0.57;0.57;;;;;;;19.13;63.69;98633.34;5073647;28;20218;-80
2022/09/15 03:58:08;;;;;;;0.63;0.53;;;;;;;19.10;63.39;98633.69;5073705;28;20210;-80
2022/09/15 04:00:36;;;;;;;0.70;0.60;;;;;;;19.07;63.23;98639.22;5073630;28;20219;-80
2022/09/15 04:03:03;;;;;;;1.27;0.60;;;;;;;19.15;63.85;98641.75;5073809;28;20676;-80
2022/09/15 04:05:30;;;;;;;0.47;0.47;;;;;;;19.09;63.41;98646.84;5073926;28;20650;-80
2022/09/15 04:07:57;;;;;;;0.63;0.60;;;;;;;19.13;62.67;98646.28;5073383;28;20196;-81
2022/09/15 04:10:24;;;;;;;0.67;0.53;;;;;;;19.19;62.91;98647.38;5073277;28;20239;-81
2022/09/15 04:12:51;;;;;;;0.50;0.50;;;;;;;19.23;62.50;98639.06;5073039;28;20710;-81
2022/09/15 04:15:18;;;;;;;0.60;0.60;;;;;;;19.19;62.94;98637.00;5072817;28;20223;-80
2022/09/15 04:17:46;;;;;;;0.50;0.50;;;;;;;19.26;62.88;98627.56;5073401;28;20200;-80
2022/09/15 04:20:14;;;;;;;0.80;0.73;;;;;;;19.30;63.21;98626.19;5073025;28;20228;-80
2022/09/15 04:22:41;;;;;;;1.37;0.57;;;;;;;19.23;62.89;98618.34;5073820;28;20204;-80
2022/09/15 04:25:09;;;;;;;0.70;0.70;;;;;;;19.22;62.92;98627.06;5073491;28;20228;-80
2022/09/15 04:27:37;;;;;;;1.00;0.70;;;;;;;19.28;63.18;98629.94;5073276;28;20674;-80
2022/09/15 04:30:05;;;;;;;0.33;0.33;;;;;;;19.39;63.10;98629.50;5073594;28;20263;-80
2022/09/15 04:32:34;;;;;;;0.50;0.50;;;;;;;19.41;63.54;98628.34;5072846;28;20218;-80
2022/09/15 04:35:03;;;;;;;0.50;0.50;;;;;;;19.49;63.49;98635.25;5073614;28;20205;-80
2022/09/15 04:37:30;;;;;;;0.70;0.70;;;;;;;19.47;63.61;98629.44;5072903;28;20533;-80
2022/09/15 04:39:57;;;;;;;0.60;0.60;;;;;;;19.45;63.16;98632.19;5072347;28;20234;-80
2022/09/15 04:42:23;;;;;;;0.60;0.60;;;;;;;19.42;62.87;98626.56;5072897;28;20207;-80
2022/09/15 04:44:50;;;;;;;0.60;0.60;;;;;;;19.55;64.71;98623.38;5071559;28;20207;-80
2022/09/15 04:47:18;;;;;;;0.93;0.80;;;;;;;19.59;63.87;98622.81;5072635;28;20652;-80
2022/09/15 04:49:45;;;;;;;0.70;0.70;;;;;;;19.65;64.48;98627.28;5072480;28;20287;-80
2022/09/15 04:52:13;;;;;;;0.97;0.63;;;;;;;19.67;63.52;98630.53;5072483;28;20200;-80
2022/09/15 04:54:41;;;;;;;0.50;0.50;;;;;;;19.72;62.80;98629.97;5072286;28;20204;-80
2022/09/15 04:57:08;;;;;;;1.03;0.77;;;;;;;19.86;63.67;98638.72;5073953;28;20223;-80
2022/09/15 04:59:35;;;;;;;0.50;0.50;;;;;;;20.00;64.95;98634.50;5072932;28;20263;-80
2022/09/15 05:02:02;;;;;;;0.57;0.57;;;;;;;20.17;66.48;98630.69;5072660;28;20718;-80
2022/09/15 05:04:29;;;;;;;0.30;0.30;;;;;;;20.30;67.50;98620.47;5072941;28;20211;-80
2022/09/15 05:06:56;;;;;;;0.43;0.43;;;;;;;20.49;69.29;98623.44;5072610;28;20218;-80
2022/09/15 05:09:25;;;;;;;0.67;0.67;;;;;;;20.71;67.06;98616.44;5072127;28;20198;-80
2022/09/15 05:11:52;;;;;;;0.90;0.70;;;;;;;20.92;64.91;98615.63;5072709;28;20693;-80
2022/09/15 05:14:19;;;;;;;0.50;0.50;;;;;;;21.16;65.13;98620.38;5072202;28;20206;-81
2022/09/15 05:16:48;;;;;;;0.80;0.80;;;;;;;21.43;64.76;98616.16;5071878;28;20757;-80
2022/09/15 05:19:15;;;;;;;0.70;0.70;;;;;;;21.67;64.46;98621.88;5072196;28;20511;-81
2022/09/15 05:21:42;;;;;;;0.83;0.70;;;;;;;21.82;60.69;98619.94;5072076;28;20301;-81
2022/09/15 05:24:09;;;;;;;0.70;0.67;;;;;;;22.15;64.67;98620.03;5071912;28;20235;-80
2022/09/15 05:26:37;;;;;;;4.00;0.80;;;;;;;22.36;60.24;98624.31;5071817;28;20691;-81
2022/09/15 05:29:04;;;;;;;0.60;0.60;;;;;;;22.57;62.95;98622.53;5073995;28;20220;-80
2022/09/15 05:31:33;;;;;;;0.80;0.80;;;;;;;22.75;59.93;98617.53;5073291;28;20672;-81
2022/09/15 05:34:02;;;;;;;0.73;0.73;;;;;;;22.98;59.64;98614.56;5072482;28;20199;-84
2022/09/15 05:36:29;;;;;;;0.98;0.85;;;;;;;23.26;58.91;98616.09;5073192;28;20233;-84
2022/09/15 05:38:57;;;;;;;0.77;0.70;;;;;;;23.49;55.57;98606.00;5074211;28;20705;-84
2022/09/15 05:41:25;;;;;;;0.73;0.55;;;;;;;23.72;52.49;98610.78;5073135;28;20223;-84
2022/09/15 05:43:55;;;;;;;0.40;0.40;;;;;;;23.98;53.48;98606.44;5071787;28;20199;-84
2022/09/15 05:46:24;;;;;;;0.90;0.70;;;;;;;24.16;50.87;98603.91;5071972;28;20223;-84
2022/09/15 05:48:52;;;;;;;0.70;0.70;;;;;;;24.39;50.62;98599.94;5072484;28;20202;-84
2022/09/15 05:51:20;;;;;;;0.68;0.68;;;;;;;24.56;49.16;98600.28;5073094;28;20310;-83
2022/09/15 05:53:47;;;;;;;0.75;0.50;;;;;;;24.75;48.72;98603.72;5072136;28;20413;-84
2022/09/15 05:56:15;;;;;;;0.80;0.80;;;;;;;24.94;48.04;98597.53;5070369;28;20218;-84
2022/09/15 05:58:43;;;;;;;0.60;0.60;;;;;;;25.16;48.30;98599.75;5071437;28;20206;-84
2022/09/15 06:01:14;;;;;;;0.63;0.63;;;;;;;25.33;47.40;98595.53;5070777;28;20597;-84
2022/09/15 06:03:41;;;;;;;0.63;0.63;;;;;;;25.58;47.16;98594.66;5073869;28;20206;-84
2022/09/15 06:06:08;;;;;;;1.30;0.77;;;;;;;25.79;45.95;98594.19;5072590;28;20230;-84
2022/09/15 06:08:36;;;;;;;0.80;0.80;;;;;;;25.93;44.69;98579.94;5071431;28;20202;-83
2022/09/15 06:11:05;;;;;;;0.90;0.70;;;;;;;26.01;44.91;98591.13;5072452;28;20233;-83
2022/09/15 06:13:33;;;;;;;0.70;0.70;;;;;;;26.09;44.76;98583.75;5071283;28;20200;-85
2022/09/15 06:16:05;;;;;;;0.80;0.80;;;;;;;25.99;41.96;98583.47;5070920;28;20226;-85
2022/09/15 06:18:36;;;;;;;0.60;0.60;;;;;;;26.06;43.89;98584.16;5070446;28;20201;-85
2022/09/15 06:21:04;;;;;;;1.20;0.80;;;;;;;26.07;44.69;98585.00;5070562;28;20325;-85
2022/09/15 06:23:31;;;;;;;0.60;0.60;;;;;;;26.14;47.03;98580.44;5070483;28;20199;-85
2022/09/15 06:26:05;;;;;;;0.60;0.60;;;;;;;26.05;45.82;98566.88;5070848;28;20253;-84
2022/09/15 06:28:32;;;;;;;0.98;0.88;;;;;;;26.15;47.76;98582.03;5070397;28;20228;-85
2022/09/15 06:30:58;;;;;;;0.73;0.73;;;;;;;26.29;45.92;98585.25;5071098;28;20300;-84
2022/09/15 06:33:25;;;;;;;0.65;0.60;;;;;;;26.37;47.36;98593.59;5070295;28;20203;-85
2022/09/15 06:35:54;;;;;;;0.95;0.70;;;;;;;26.33;47.24;98600.31;5070399;28;20218;-85
2022/09/15 06:38:21;;;;;;;0.68;0.68;;;;;;;26.49;48.18;98593.63;5071599;28;20210;-85
2022/09/15 06:40:55;;;;;;;0.45;0.45;;;;;;;26.79;43.84;98585.69;5070288;28;20246;-85
2022/09/15 06:43:22;;;;;;;0.55;0.55;;;;;;;27.14;43.05;98579.63;5070550;28;20190;-85
2022/09/15 06:45:49;;;;;;;0.95;0.85;;;;;;;27.45;43.11;98580.25;5070279;28;20222;-85
2022/09/15 06:48:15;;;;;;;0.80;0.80;;;;;;;27.62;43.48;98585.59;5070296;28;20592;-85
2022/09/15 06:50:42;;;;;;;0.65;0.65;;;;;;;27.80;43.14;98584.63;5070493;28;20226;-85
2022/09/15 06:53:11;;;;;;;0.70;0.70;;;;;;;28.05;42.54;98574.56;5070336;28;20666;-85
2022/09/15 06:55:38;;;;;;;0.52;0.52;;;;;;;28.18;40.30;98574.25;5070598;28;20233;-83
2022/09/15 06:58:05;;;;;;;0.50;0.50;;;;;;;28.50;42.28;98576.38;5070374;28;20289;-82
2022/09/15 07:00:31;;;;;;;0.60;0.55;;;;;;;28.73;42.34;98574.59;5070074;28;20615;-85
2022/09/15 07:02:58;;;;;;;0.70;0.50;;;;;;;28.98;40.48;98567.06;5070316;28;20206;-84
2022/09/15 07:05:25;;;;;;;0.70;0.70;;;;;;;29.13;38.42;98568.34;5070320;28;20215;-84
2022/09/15 07:07:52;;;;;;;0.80;0.80;;;;;;;29.25;38.35;98572.44;5072947;28;20682;-84
2022/09/15 07:10:20;;;;;;;0.60;0.60;;;;;;;29.44;37.44;98564.22;5074227;28;20618;-86
2022/09/15 07:12:47;;;;;;;1.08;0.75;;;;;;;29.51;40.21;98576.16;5075118;28;20209;-82
2022/09/15 07:15:14;;;;;;;0.68;0.68;;;;;;;29.70;38.49;98581.13;5074582;28;20222;-84
2022/09/15 07:17:41;;;;;;;2.28;0.80;;;;;;;29.93;39.21;98588.75;5073890;28;20681;-83
2022/09/15 07:20:09;;;;;;;0.63;0.60;;;;;;;30.16;37.14;98586.81;5073969;28;20241;-84
2022/09/15 07:22:36;;;;;;;0.63;0.63;;;;;;;30.19;38.46;98591.59;5073736;28;20268;-84
2022/09/15 07:25:03;;;;;;;0.70;0.70;;;;;;;30.40;38.56;98593.41;5073918;28;20739;-83
2022/09/15 07:27:31;;;;;;;1.08;1.00;;;;;;;30.64;38.31;98603.59;5073942;28;20784;-84
2022/09/15 07:29:58;;;;;;;0.90;0.80;;;;;;;30.92;40.46;98609.59;5074165;28;20210;-83
2022/09/15 07:32:26;;;;;;;0.77;0.77;;;;;;;31.11;36.50;98608.13;5073994;28;20230;-84
2022/09/15 07:34:52;;;;;;;0.70;0.70;;;;;;;31.12;37.92;98609.72;5074102;28;20206;-84
2022/09/15 07:37:19;;;;;;;0.85;0.80;;;;;;;31.29;37.56;98615.59;5073819;28;20687;-84
2022/09/15 07:39:46;;;;;;;0.82;0.82;;;;;;;31.47;38.82;98610.94;5073855;28;20717;-84
2022/09/15 07:42:13;;;;;;;0.80;0.80;;;;;;;31.64;35.81;98611.53;5073674;28;20210;-84
2022/09/15 07:44:41;;;;;;;0.93;0.82;;;;;;;31.83;35.11;98616.34;5073578;28;20554;-85
2022/09/15 07:47:08;;;;;;;0.98;0.93;;;;;;;31.99;36.10;98620.63;5073727;28;20719;-84
2022/09/15 07:49:35;;;;;;;0.98;0.88;;;;;;;32.29;37.04;98619.06;5073527;28;20624;-83
2022/09/15 07:52:02;;;;;;;0.90;0.90;;;;;;;32.49;34.97;98621.75;5073055;28;20231;-84
2022/09/15 07:54:29;;;;;;;0.80;0.70;;;;;;;32.63;34.32;98617.50;5073266;28;20198;-84
2022/09/15 07:56:56;;;;;;;0.63;0.63;;;;;;;32.72;32.98;98624.91;5072983;28;20230;-84
2022/09/15 07:59:22;;;;;;;0.70;0.70;;;;;;;33.07;33.93;98624.06;5072843;28;20205;-85
2022/09/15 08:01:51;;;;;;;0.80;0.73;;;;;;;33.35;33.84;98634.03;5072950;28;20223;-84
2022/09/15 08:04:18;;;;;;;0.70;0.70;;;;;;;33.54;32.93;98631.63;5073061;28;20644;-84
2022/09/15 08:06:45;;;;;;;1.13;1.00;;;;;;;33.62;32.90;98624.16;5073263;28;20222;-85
2022/09/15 08:09:16;;;;;;;0.82;0.70;;;;;;;33.86;35.51;98633.03;5073115;28;20203;-85
2022/09/15 08:11:43;;;;;;;1.20;0.90;;;;;;;33.73;31.66;98634.41;5073151;28;20658;-84
2022/09/15 08:14:10;;;;;;;1.38;1.27;;;;;;;33.84;31.82;98627.22;5072875;28;20195;-84
2022/09/15 08:16:36;;;;;;;1.48;0.90;;;;;;;34.09;32.83;98633.44;5072845;28;20229;-84
2022/09/15 08:19:05;;;;;;;1.83;1.15;;;;;;;34.19;30.97;98626.19;5072544;28;20207;-84
2022/09/15 08:21:32;;;;;;;0.65;0.65;;;;;;;34.35;29.65;98624.19;5072423;28;20303;-84
2022/09/15 08:24:00;;;;;;;1.67;0.60;;;;;;;34.38;28.69;98628.97;5072723;28;20209;-85
2022/09/15 08:26:28;;;;;;;1.55;0.77;;;;;;;34.12;27.03;98619.63;5072676;28;20732;-85
2022/09/15 08:28:55;;;;;;;0.70;0.70;;;;;;;34.33;30.66;98621.06;5072360;28;20190;-84
2022/09/15 08:31:23;;;;;;;0.80;0.70;;;;;;;34.34;30.05;98609.34;5072260;28;20220;-86
2022/09/15 08:33:52;;;;;;;0.77;0.77;;;;;;;34.45;29.14;98615.38;5072390;28;20199;-86
2022/09/15 08:36:21;;;;;;;1.27;0.85;;;;;;;34.73;30.00;98600.53;5072525;28;20219;-86
2022/09/15 08:38:48;;;;;;;1.52;1.00;;;;;;;34.89;28.86;98606.50;5072335;28;20213;-86
2022/09/15 08:41:22;;;;;;;0.95;0.82;;;;;;;34.83;28.86;98603.09;5072026;28;20234;-84
2022/09/15 08:43:56;;;;;;;0.73;0.73;;;;;;;34.89;26.96;98601.19;5072373;28;20217;-85
2022/09/15 08:46:29;;;;;;;0.50;0.50;;;;;;;34.81;26.48;98605.22;5072306;28;20605;-84
2022/09/15 08:49:03;;;;;;;0.93;0.60;;;;;;;34.65;27.03;98595.84;5072039;28;20203;-83
2022/09/15 08:51:39;;;;;;;2.05;0.82;;;;;;;34.77;25.75;98596.25;5071843;28;20222;-83
2022/09/15 08:54:16;;;;;;;1.10;1.00;;;;;;;34.96;27.53;98598.16;5072518;28;20198;-84
2022/09/15 08:56:44;;;;;;;0.80;0.80;;;;;;;34.93;27.71;98592.34;5071957;28;20226;-84
2022/09/15 08:59:15;;;;;;;1.63;0.88;;;;;;;34.71;27.99;98584.09;5071953;28;20231;-84
2022/09/15 09:01:55;;;;;;;1.20;0.90;;;;;;;35.06;27.36;98577.63;5071488;28;20291;-84
2022/09/15 09:04:44;;;;;;;0.55;0.55;;;;;;;35.17;29.64;98578.31;5071841;28;20199;-84
2022/09/15 09:07:24;;;;;;;0.80;0.80;;;;;;;35.31;27.51;98575.72;5071606;28;20210;-84
2022/09/15 09:10:00;;;;;;;0.70;0.70;;;;;;;35.36;27.62;98568.47;5071866;28;20198;-84
2022/09/15 09:12:50;;;;;;;0.80;0.80;;;;;;;35.48;25.52;98580.56;5072081;28;20195;-84
2022/09/15 09:15:27;;;;;;;1.45;0.90;;;;;;;35.66;28.77;98569.16;5071413;28;20226;-84
2022/09/15 09:18:13;;;;;;;1.17;0.88;;;;;;;35.67;26.55;98578.72;5071640;28;20206;-84
2022/09/15 09:20:49;;;;;;;1.10;0.65;;;;;;;35.75;27.54;98588.72;5071463;28;20253;-84
2022/09/15 09:23:22;;;;;;;0.90;0.90;;;;;;;35.67;26.28;98584.03;5072070;28;20240;-83
2022/09/15 09:25:51;;;;;;;0.73;0.73;;;;;;;35.79;25.16;98581.72;5071779;28;20296;-84
2022/09/15 09:28:37;;;;;;;0.88;0.80;;;;;;;35.97;26.36;98582.00;5071030;28;20195;-84
2022/09/15 09:31:06;;;;;;;0.80;0.80;;;;;;;35.96;26.16;98589.19;5070415;28;20229;-84
2022/09/15 09:33:41;;;;;;;0.73;0.73;;;;;;;35.87;25.33;98584.81;5071744;28;20210;-83
2022/09/15 09:36:10;;;;;;;0.70;0.70;;;;;;;36.01;27.62;98577.66;5071322;28;20214;-84
2022/09/15 09:38:42;;;;;;;1.02;1.00;;;;;;;36.06;24.32;98580.28;5071258;28;20207;-83
2022/09/15 09:41:14;;;;;;;0.93;0.80;;;;;;;36.03;26.95;98575.50;5071389;28;20230;-84
2022/09/15 09:43:42;;;;;;;1.00;0.90;;;;;;;36.00;25.46;98581.41;5071463;28;20340;-84
2022/09/15 09:46:15;;;;;;;1.60;0.75;;;;;;;35.92;24.70;98590.06;5071273;28;20218;-84
2022/09/15 09:48:45;;;;;;;1.85;1.00;;;;;;;36.00;24.58;98579.53;5071407;28;20654;-84
2022/09/15 09:51:36;;;;;;;0.95;0.88;;;;;;;36.23;24.68;98569.09;5071116;28;20214;-84
2022/09/15 09:54:14;;;;;;;1.02;0.95;;;;;;;36.23;25.07;98572.53;5070853;28;20206;-84
2022/09/15 09:56:42;;;;;;;0.73;0.73;;;;;;;36.09;25.14;98563.72;5071561;28;20755;-83
2022/09/15 09:59:31;;;;;;;1.30;1.20;;;;;;;36.05;25.71;98578.72;5071005;28;20686;-83
2022/09/15 10:02:14;;;;;;;1.00;0.90;;;;;;;36.20;25.52;98570.47;5070225;28;20270;-84
2022/09/15 10:04:43;;;;;;;0.77;0.77;;;;;;;36.32;25.98;98566.56;5070725;28;20249;-84
2022/09/15 10:07:11;;;;;;;1.38;0.85;;;;;;;36.25;24.66;98561.63;5070274;28;20747;-84
2022/09/15 10:09:40;;;;;;;0.80;0.80;;;;;;;36.32;24.79;98571.88;5071081;28;20214;-84
2022/09/15 10:12:16;;;;;;;1.48;1.00;;;;;;;36.48;26.88;98559.88;5070576;28;20209;-84
2022/09/15 10:14:44;;;;;;;0.70;0.70;;;;;;;36.57;24.90;98568.81;5070592;28;20676;-84
2022/09/15 10:17:15;;;;;;;1.17;0.90;;;;;;;36.39;24.29;98570.44;5070567;28;20210;-84
2022/09/15 10:19:47;;;;;;;0.90;0.90;;;;;;;36.17;24.69;98560.41;5070801;28;20203;-84
2022/09/15 10:22:23;;;;;;;0.70;0.70;;;;;;;36.21;25.38;98556.06;5070195;28;20708;-84
2022/09/15 10:24:52;;;;;;;1.10;0.80;;;;;;;36.04;25.46;98545.19;5070505;28;20206;-84
2022/09/15 10:27:25;;;;;;;0.73;0.73;;;;;;;35.79;24.59;98552.47;5070375;28;20234;-83
2022/09/15 10:29:52;;;;;;;0.80;0.80;;;;;;;35.90;27.16;98555.78;5070414;28;20222;-83
2022/09/15 10:32:24;;;;;;;0.90;0.82;;;;;;;36.15;27.61;98541.28;5070070;28;20215;-83
2022/09/15 10:35:11;;;;;;;1.02;0.88;;;;;;;36.21;24.71;98542.75;5070431;28;20202;-83
2022/09/15 10:37:53;;;;;;;0.73;0.73;;;;;;;36.32;25.09;98540.72;5070594;28;20199;-84
2022/09/15 10:40:33;;;;;;;0.68;0.68;;;;;;;36.51;27.24;98545.97;5070086;28;20226;-84
2022/09/15 10:43:11;;;;;;;2.75;0.82;;;;;;;36.39;25.88;98545.66;5069662;28;20264;-83
2022/09/15 10:45:40;;;;;;;0.82;0.82;;;;;;;36.37;25.83;98547.84;5070022;28;20752;-84
2022/09/15 10:48:31;;;;;;;1.27;0.88;;;;;;;36.03;25.17;98538.25;5070101;28;20202;-84
2022/09/15 10:51:07;;;;;;;2.08;0.90;;;;;;;36.03;25.39;98544.38;5070221;28;20215;-85
2022/09/15 10:53:56;;;;;;;0.85;0.85;;;;;;;35.94;26.78;98532.03;5070227;28;20673;-84
2022/09/15 10:56:29;;;;;;;0.80;0.80;;;;;;;36.18;27.15;98540.69;5070716;28;20222;-83
2022/09/15 10:59:13;;;;;;;0.98;0.90;;;;;;;36.20;26.61;98538.53;5070231;28;20213;-84
2022/09/15 11:02:05;;;;;;;0.70;0.70;;;;;;;36.19;27.07;98531.63;5069520;28;20231;-84
2022/09/15 11:04:49;;;;;;;1.00;0.90;;;;;;;36.19;26.92;98530.84;5069883;28;20214;-84
2022/09/15 11:07:23;;;;;;;0.82;0.82;;;;;;;36.13;25.06;98532.81;5069893;28;20206;-84
2022/09/15 11:09:57;;;;;;;0.82;0.82;;;;;;;35.86;24.98;98522.03;5069959;28;20191;-84
2022/09/15 11:12:41;;;;;;;0.90;0.90;;;;;;;35.78;25.66;98520.81;5069982;28;20207;-83
2022/09/15 11:15:23;;;;;;;0.70;0.70;;;;;;;35.66;25.35;98525.81;5069864;28;20249;-84
2022/09/15 11:18:05;;;;;;;2.22;1.00;;;;;;;35.58;26.34;98540.56;5069703;28;20210;-84
2022/09/15 11:20:52;;;;;;;0.90;0.90;;;;;;;35.37;27.45;98527.53;5070001;28;20229;-84
2022/09/15 11:23:24;;;;;;;1.13;1.00;;;;;;;35.52;29.04;98539.00;5070270;28;20199;-84
2022/09/15 11:25:57;;;;;;;1.08;0.80;;;;;;;35.95;28.55;98526.41;5070163;28;20222;-84
2022/09/15 11:28:30;;;;;;;1.23;1.02;;;;;;;36.05;26.41;98533.47;5069878;28;20191;-84
2022/09/15 11:31:02;;;;;;;1.10;1.00;;;;;;;35.86;26.54;98544.13;5069749;28;20228;-84
2022/09/15 11:33:34;;;;;;;1.00;0.93;;;;;;;35.60;25.82;98538.38;5069968;28;20252;-84
2022/09/15 11:36:06;;;;;;;0.70;0.70;;;;;;;35.94;29.48;98529.38;5069984;28;20587;-84
2022/09/15 11:38:41;;;;;;;1.13;1.00;;;;;;;36.18;27.65;98524.72;5069780;28;20583;-83
2022/09/15 11:41:18;;;;;;;1.00;0.90;;;;;;;35.98;28.59;98533.00;5070021;28;20230;-83
2022/09/15 11:43:56;;;;;;;1.00;0.80;;;;;;;35.86;26.08;98520.16;5069949;28;20275;-84
2022/09/15 11:46:47;;;;;;;1.20;1.00;;;;;;;36.03;26.58;98519.63;5069633;28;20317;-83
2022/09/15 11:49:18;;;;;;;0.90;0.90;;;;;;;36.13;27.44;98519.50;5069631;28;20199;-84
2022/09/15 11:51:54;;;;;;;0.60;0.60;;;;;;;35.94;27.61;98513.41;5069576;28;20223;-84